sensor_id;sensor_type;location;lat;lon;timestamp;P1;durP1;ratioP1;P2;durP2;ratioP2
40609;SDS011;26316;55.976;37.140;2023-07-16T00:02:05;3.25;;;2.95;;
40609;SDS011;26316;55.976;37.140;2023-07-16T00:04:31;2.88;;;2.67;;
40609;SDS011;26316;55.976;37.140;2023-07-16T00:06:57;3.22;;;3.00;;
40609;SDS011;26316;55.976;37.140;2023-07-16T00:09:24;3.58;;;3.00;;
40609;SDS011;26316;55.976;37.140;2023-07-16T00:11:50;3.22;;;2.90;;
40609;SDS011;26316;55.976;37.140;2023-07-16T00:14:15;4.45;;;2.92;;
40609;SDS011;26316;55.976;37.140;2023-07-16T00:16:41;6.68;;;3.22;;
40609;SDS011;26316;55.976;37.140;2023-07-16T00:19:07;8.07;;;2.92;;
40609;SDS011;26316;55.976;37.140;2023-07-16T00:21:32;7.93;;;2.90;;
40609;SDS011;26316;55.976;37.140;2023-07-16T00:23:58;4.38;;;2.65;;
40609;SDS011;26316;55.976;37.140;2023-07-16T00:26:24;6.00;;;2.95;;
40609;SDS011;26316;55.976;37.140;2023-07-16T00:28:49;3.08;;;2.60;;
40609;SDS011;26316;55.976;37.140;2023-07-16T00:31:15;6.28;;;3.40;;
40609;SDS011;26316;55.976;37.140;2023-07-16T00:33:41;4.15;;;3.05;;
40609;SDS011;26316;55.976;37.140;2023-07-16T00:36:06;3.33;;;3.03;;
40609;SDS011;26316;55.976;37.140;2023-07-16T00:38:32;3.35;;;2.63;;
40609;SDS011;26316;55.976;37.140;2023-07-16T00:40:58;3.33;;;2.88;;
40609;SDS011;26316;55.976;37.140;2023-07-16T00:43:23;4.30;;;3.13;;
40609;SDS011;26316;55.976;37.140;2023-07-16T00:45:49;7.00;;;3.15;;
40609;SDS011;26316;55.976;37.140;2023-07-16T00:48:15;6.78;;;3.33;;
40609;SDS011;26316;55.976;37.140;2023-07-16T00:50:41;4.43;;;3.40;;
40609;SDS011;26316;55.976;37.140;2023-07-16T00:53:07;2.85;;;2.65;;
40609;SDS011;26316;55.976;37.140;2023-07-16T00:55:34;2.95;;;2.60;;
40609;SDS011;26316;55.976;37.140;2023-07-16T00:58:05;3.22;;;2.83;;
40609;SDS011;26316;55.976;37.140;2023-07-16T01:00:35;3.33;;;3.03;;
40609;SDS011;26316;55.976;37.140;2023-07-16T01:03:03;3.70;;;3.40;;
40609;SDS011;26316;55.976;37.140;2023-07-16T01:05:42;3.92;;;3.10;;
40609;SDS011;26316;55.976;37.140;2023-07-16T01:08:13;10.55;;;3.08;;
40609;SDS011;26316;55.976;37.140;2023-07-16T01:10:40;3.67;;;3.38;;
40609;SDS011;26316;55.976;37.140;2023-07-16T01:13:06;4.80;;;3.40;;
40609;SDS011;26316;55.976;37.140;2023-07-16T01:15:32;6.22;;;2.88;;
40609;SDS011;26316;55.976;37.140;2023-07-16T01:17:59;4.82;;;3.17;;
40609;SDS011;26316;55.976;37.140;2023-07-16T01:20:26;4.50;;;2.60;;
40609;SDS011;26316;55.976;37.140;2023-07-16T01:22:57;4.85;;;3.15;;
40609;SDS011;26316;55.976;37.140;2023-07-16T01:30:47;7.75;;;2.97;;
40609;SDS011;26316;55.976;37.140;2023-07-16T01:33:14;3.95;;;3.17;;
40609;SDS011;26316;55.976;37.140;2023-07-16T01:35:42;4.30;;;3.90;;
40609;SDS011;26316;55.976;37.140;2023-07-16T01:38:09;3.83;;;3.30;;
40609;SDS011;26316;55.976;37.140;2023-07-16T01:40:35;5.07;;;3.17;;
40609;SDS011;26316;55.976;37.140;2023-07-16T01:43:01;4.10;;;3.30;;
40609;SDS011;26316;55.976;37.140;2023-07-16T01:45:27;4.57;;;2.72;;
40609;SDS011;26316;55.976;37.140;2023-07-16T01:47:58;5.35;;;3.10;;
40609;SDS011;26316;55.976;37.140;2023-07-16T01:50:31;3.20;;;2.83;;
40609;SDS011;26316;55.976;37.140;2023-07-16T01:52:56;3.03;;;2.72;;
40609;SDS011;26316;55.976;37.140;2023-07-16T01:55:25;5.30;;;2.97;;
40609;SDS011;26316;55.976;37.140;2023-07-16T01:57:50;4.43;;;2.97;;
40609;SDS011;26316;55.976;37.140;2023-07-16T02:00:16;4.70;;;2.92;;
40609;SDS011;26316;55.976;37.140;2023-07-16T02:02:50;4.47;;;3.33;;
40609;SDS011;26316;55.976;37.140;2023-07-16T02:05:16;3.13;;;2.83;;
40609;SDS011;26316;55.976;37.140;2023-07-16T02:07:41;2.88;;;2.65;;
40609;SDS011;26316;55.976;37.140;2023-07-16T02:10:07;5.45;;;3.15;;
40609;SDS011;26316;55.976;37.140;2023-07-16T02:12:34;4.70;;;2.78;;
40609;SDS011;26316;55.976;37.140;2023-07-16T02:15:00;6.70;;;3.08;;
40609;SDS011;26316;55.976;37.140;2023-07-16T02:17:26;3.33;;;3.05;;
40609;SDS011;26316;55.976;37.140;2023-07-16T02:19:52;2.95;;;2.75;;
40609;SDS011;26316;55.976;37.140;2023-07-16T02:22:18;4.05;;;3.05;;
40609;SDS011;26316;55.976;37.140;2023-07-16T02:24:43;4.18;;;2.70;;
40609;SDS011;26316;55.976;37.140;2023-07-16T02:27:11;3.80;;;2.40;;
40609;SDS011;26316;55.976;37.140;2023-07-16T02:29:39;3.90;;;2.88;;
40609;SDS011;26316;55.976;37.140;2023-07-16T02:32:05;5.28;;;2.90;;
40609;SDS011;26316;55.976;37.140;2023-07-16T02:34:30;4.57;;;2.80;;
40609;SDS011;26316;55.976;37.140;2023-07-16T02:36:56;3.95;;;3.00;;
40609;SDS011;26316;55.976;37.140;2023-07-16T02:39:22;3.58;;;3.25;;
40609;SDS011;26316;55.976;37.140;2023-07-16T02:41:48;4.93;;;3.20;;
40609;SDS011;26316;55.976;37.140;2023-07-16T02:44:14;4.32;;;3.10;;
40609;SDS011;26316;55.976;37.140;2023-07-16T02:46:41;5.03;;;3.40;;
40609;SDS011;26316;55.976;37.140;2023-07-16T02:49:07;4.57;;;3.88;;
40609;SDS011;26316;55.976;37.140;2023-07-16T02:51:32;3.33;;;3.03;;
40609;SDS011;26316;55.976;37.140;2023-07-16T02:53:58;5.32;;;3.72;;
40609;SDS011;26316;55.976;37.140;2023-07-16T02:56:24;3.80;;;3.47;;
40609;SDS011;26316;55.976;37.140;2023-07-16T02:58:49;3.95;;;3.45;;
40609;SDS011;26316;55.976;37.140;2023-07-16T03:01:15;4.32;;;3.92;;
40609;SDS011;26316;55.976;37.140;2023-07-16T03:03:41;3.17;;;2.88;;
40609;SDS011;26316;55.976;37.140;2023-07-16T03:06:07;3.80;;;3.50;;
40609;SDS011;26316;55.976;37.140;2023-07-16T03:08:33;5.22;;;4.18;;
40609;SDS011;26316;55.976;37.140;2023-07-16T03:11:00;4.47;;;3.85;;
40609;SDS011;26316;55.976;37.140;2023-07-16T03:13:26;5.25;;;4.25;;
40609;SDS011;26316;55.976;37.140;2023-07-16T03:15:51;4.60;;;4.18;;
40609;SDS011;26316;55.976;37.140;2023-07-16T03:18:20;4.13;;;3.78;;
40609;SDS011;26316;55.976;37.140;2023-07-16T03:20:46;4.87;;;4.43;;
40609;SDS011;26316;55.976;37.140;2023-07-16T03:23:12;4.18;;;3.78;;
40609;SDS011;26316;55.976;37.140;2023-07-16T03:25:37;8.02;;;4.45;;
40609;SDS011;26316;55.976;37.140;2023-07-16T03:28:03;4.45;;;4.05;;
40609;SDS011;26316;55.976;37.140;2023-07-16T03:30:30;4.60;;;4.20;;
40609;SDS011;26316;55.976;37.140;2023-07-16T03:32:56;6.60;;;4.25;;
40609;SDS011;26316;55.976;37.140;2023-07-16T03:35:24;4.55;;;4.15;;
40609;SDS011;26316;55.976;37.140;2023-07-16T03:37:50;6.15;;;4.22;;
40609;SDS011;26316;55.976;37.140;2023-07-16T03:40:18;5.05;;;4.35;;
40609;SDS011;26316;55.976;37.140;2023-07-16T03:42:47;6.18;;;3.90;;
40609;SDS011;26316;55.976;37.140;2023-07-16T03:45:12;4.30;;;3.78;;
40609;SDS011;26316;55.976;37.140;2023-07-16T03:47:39;4.97;;;4.30;;
40609;SDS011;26316;55.976;37.140;2023-07-16T03:50:05;5.43;;;3.92;;
40609;SDS011;26316;55.976;37.140;2023-07-16T03:52:31;8.05;;;4.03;;
40609;SDS011;26316;55.976;37.140;2023-07-16T03:54:57;5.22;;;3.85;;
40609;SDS011;26316;55.976;37.140;2023-07-16T03:57:23;5.82;;;3.72;;
40609;SDS011;26316;55.976;37.140;2023-07-16T03:59:48;4.57;;;4.03;;
40609;SDS011;26316;55.976;37.140;2023-07-16T04:02:14;5.30;;;3.40;;
40609;SDS011;26316;55.976;37.140;2023-07-16T04:04:40;8.10;;;4.20;;
40609;SDS011;26316;55.976;37.140;2023-07-16T04:07:06;4.35;;;3.95;;
40609;SDS011;26316;55.976;37.140;2023-07-16T04:09:31;7.00;;;3.75;;
40609;SDS011;26316;55.976;37.140;2023-07-16T04:11:57;8.20;;;3.72;;
40609;SDS011;26316;55.976;37.140;2023-07-16T04:14:23;8.27;;;4.25;;
40609;SDS011;26316;55.976;37.140;2023-07-16T04:16:48;3.70;;;3.05;;
40609;SDS011;26316;55.976;37.140;2023-07-16T04:19:14;3.72;;;3.42;;
40609;SDS011;26316;55.976;37.140;2023-07-16T04:21:40;5.57;;;3.55;;
40609;SDS011;26316;55.976;37.140;2023-07-16T04:24:06;4.97;;;3.80;;
40609;SDS011;26316;55.976;37.140;2023-07-16T04:26:32;3.20;;;3.00;;
40609;SDS011;26316;55.976;37.140;2023-07-16T04:28:58;6.40;;;4.10;;
40609;SDS011;26316;55.976;37.140;2023-07-16T04:31:23;3.80;;;3.50;;
40609;SDS011;26316;55.976;37.140;2023-07-16T04:33:50;4.38;;;3.97;;
40609;SDS011;26316;55.976;37.140;2023-07-16T04:36:16;6.10;;;3.75;;
40609;SDS011;26316;55.976;37.140;2023-07-16T04:38:42;7.40;;;3.75;;
40609;SDS011;26316;55.976;37.140;2023-07-16T04:41:07;8.45;;;3.70;;
40609;SDS011;26316;55.976;37.140;2023-07-16T04:43:33;6.43;;;3.70;;
40609;SDS011;26316;55.976;37.140;2023-07-16T04:45:59;4.22;;;3.83;;
40609;SDS011;26316;55.976;37.140;2023-07-16T04:48:25;4.47;;;4.10;;
40609;SDS011;26316;55.976;37.140;2023-07-16T04:50:51;4.28;;;3.88;;
40609;SDS011;26316;55.976;37.140;2023-07-16T04:53:20;5.22;;;3.70;;
40609;SDS011;26316;55.976;37.140;2023-07-16T04:55:46;4.30;;;3.70;;
40609;SDS011;26316;55.976;37.140;2023-07-16T04:58:11;9.25;;;7.97;;
40609;SDS011;26316;55.976;37.140;2023-07-16T05:00:37;4.70;;;3.58;;
40609;SDS011;26316;55.976;37.140;2023-07-16T05:03:03;5.05;;;3.65;;
40609;SDS011;26316;55.976;37.140;2023-07-16T05:05:29;4.53;;;4.10;;
40609;SDS011;26316;55.976;37.140;2023-07-16T05:07:54;5.70;;;3.53;;
40609;SDS011;26316;55.976;37.140;2023-07-16T05:10:20;4.00;;;3.58;;
40609;SDS011;26316;55.976;37.140;2023-07-16T05:12:46;5.00;;;3.30;;
40609;SDS011;26316;55.976;37.140;2023-07-16T05:15:12;7.82;;;4.03;;
40609;SDS011;26316;55.976;37.140;2023-07-16T05:17:38;4.32;;;3.70;;
40609;SDS011;26316;55.976;37.140;2023-07-16T05:20:03;4.25;;;3.50;;
40609;SDS011;26316;55.976;37.140;2023-07-16T05:22:30;4.13;;;3.50;;
40609;SDS011;26316;55.976;37.140;2023-07-16T05:24:55;3.88;;;3.53;;
40609;SDS011;26316;55.976;37.140;2023-07-16T05:27:21;9.90;;;8.02;;
40609;SDS011;26316;55.976;37.140;2023-07-16T05:29:47;11.80;;;8.80;;
40609;SDS011;26316;55.976;37.140;2023-07-16T05:32:13;5.28;;;4.07;;
40609;SDS011;26316;55.976;37.140;2023-07-16T05:34:39;5.20;;;4.45;;
40609;SDS011;26316;55.976;37.140;2023-07-16T05:37:05;4.13;;;3.80;;
40609;SDS011;26316;55.976;37.140;2023-07-16T05:39:31;4.50;;;4.07;;
40609;SDS011;26316;55.976;37.140;2023-07-16T05:41:56;5.90;;;3.95;;
40609;SDS011;26316;55.976;37.140;2023-07-16T05:44:22;5.10;;;4.00;;
40609;SDS011;26316;55.976;37.140;2023-07-16T05:46:48;4.70;;;4.22;;
40609;SDS011;26316;55.976;37.140;2023-07-16T05:49:13;4.70;;;4.30;;
40609;SDS011;26316;55.976;37.140;2023-07-16T05:51:39;4.75;;;4.35;;
40609;SDS011;26316;55.976;37.140;2023-07-16T05:54:05;6.78;;;3.70;;
40609;SDS011;26316;55.976;37.140;2023-07-16T05:56:31;3.75;;;3.20;;
40609;SDS011;26316;55.976;37.140;2023-07-16T05:58:57;8.25;;;4.70;;
40609;SDS011;26316;55.976;37.140;2023-07-16T06:01:23;3.92;;;3.63;;
40609;SDS011;26316;55.976;37.140;2023-07-16T06:03:48;6.47;;;3.60;;
40609;SDS011;26316;55.976;37.140;2023-07-16T06:06:14;3.42;;;3.13;;
40609;SDS011;26316;55.976;37.140;2023-07-16T06:08:40;10.13;;;4.07;;
40609;SDS011;26316;55.976;37.140;2023-07-16T06:11:05;3.92;;;3.55;;
40609;SDS011;26316;55.976;37.140;2023-07-16T06:13:31;3.65;;;3.33;;
40609;SDS011;26316;55.976;37.140;2023-07-16T06:15:57;3.80;;;3.13;;
40609;SDS011;26316;55.976;37.140;2023-07-16T06:18:23;5.75;;;3.78;;
40609;SDS011;26316;55.976;37.140;2023-07-16T06:20:48;5.35;;;3.72;;
40609;SDS011;26316;55.976;37.140;2023-07-16T06:23:15;5.03;;;3.70;;
40609;SDS011;26316;55.976;37.140;2023-07-16T06:25:42;4.55;;;3.95;;
40609;SDS011;26316;55.976;37.140;2023-07-16T06:28:10;5.20;;;3.78;;
40609;SDS011;26316;55.976;37.140;2023-07-16T06:30:37;4.35;;;3.50;;
40609;SDS011;26316;55.976;37.140;2023-07-16T06:33:02;6.00;;;4.75;;
40609;SDS011;26316;55.976;37.140;2023-07-16T06:35:28;6.53;;;3.97;;
40609;SDS011;26316;55.976;37.140;2023-07-16T06:37:54;4.35;;;3.40;;
40609;SDS011;26316;55.976;37.140;2023-07-16T06:40:19;3.70;;;3.40;;
40609;SDS011;26316;55.976;37.140;2023-07-16T06:42:45;9.45;;;3.80;;
40609;SDS011;26316;55.976;37.140;2023-07-16T06:45:11;3.90;;;3.50;;
40609;SDS011;26316;55.976;37.140;2023-07-16T06:47:37;4.65;;;3.25;;
40609;SDS011;26316;55.976;37.140;2023-07-16T06:50:03;4.10;;;3.00;;
40609;SDS011;26316;55.976;37.140;2023-07-16T06:52:30;9.68;;;3.40;;
40609;SDS011;26316;55.976;37.140;2023-07-16T06:54:56;5.20;;;3.35;;
40609;SDS011;26316;55.976;37.140;2023-07-16T06:57:22;8.63;;;4.38;;
40609;SDS011;26316;55.976;37.140;2023-07-16T06:59:48;10.57;;;5.80;;
40609;SDS011;26316;55.976;37.140;2023-07-16T07:02:15;8.02;;;4.60;;
40609;SDS011;26316;55.976;37.140;2023-07-16T07:04:42;6.40;;;3.90;;
40609;SDS011;26316;55.976;37.140;2023-07-16T07:07:07;4.57;;;3.60;;
40609;SDS011;26316;55.976;37.140;2023-07-16T07:09:33;4.32;;;3.42;;
40609;SDS011;26316;55.976;37.140;2023-07-16T07:11:59;4.47;;;3.13;;
40609;SDS011;26316;55.976;37.140;2023-07-16T07:14:25;3.67;;;3.17;;
40609;SDS011;26316;55.976;37.140;2023-07-16T07:16:50;3.58;;;2.70;;
40609;SDS011;26316;55.976;37.140;2023-07-16T07:19:16;5.15;;;3.10;;
40609;SDS011;26316;55.976;37.140;2023-07-16T07:21:42;4.45;;;3.00;;
40609;SDS011;26316;55.976;37.140;2023-07-16T07:24:07;3.85;;;3.20;;
40609;SDS011;26316;55.976;37.140;2023-07-16T07:26:33;7.57;;;3.35;;
40609;SDS011;26316;55.976;37.140;2023-07-16T07:28:59;3.50;;;3.20;;
40609;SDS011;26316;55.976;37.140;2023-07-16T07:31:24;4.75;;;3.22;;
40609;SDS011;26316;55.976;37.140;2023-07-16T07:33:50;4.35;;;3.15;;
40609;SDS011;26316;55.976;37.140;2023-07-16T07:36:16;5.32;;;2.63;;
40609;SDS011;26316;55.976;37.140;2023-07-16T07:38:41;7.90;;;2.90;;
40609;SDS011;26316;55.976;37.140;2023-07-16T07:41:07;4.80;;;3.08;;
40609;SDS011;26316;55.976;37.140;2023-07-16T07:43:33;2.55;;;2.45;;
40609;SDS011;26316;55.976;37.140;2023-07-16T07:45:58;3.10;;;2.90;;
40609;SDS011;26316;55.976;37.140;2023-07-16T07:48:24;3.03;;;2.70;;
40609;SDS011;26316;55.976;37.140;2023-07-16T07:50:50;6.90;;;2.80;;
40609;SDS011;26316;55.976;37.140;2023-07-16T07:53:16;5.28;;;2.72;;
40609;SDS011;26316;55.976;37.140;2023-07-16T07:55:43;4.50;;;2.53;;
40609;SDS011;26316;55.976;37.140;2023-07-16T07:58:09;2.90;;;2.67;;
40609;SDS011;26316;55.976;37.140;2023-07-16T08:00:35;3.33;;;2.33;;
40609;SDS011;26316;55.976;37.140;2023-07-16T08:03:00;2.67;;;2.25;;
40609;SDS011;26316;55.976;37.140;2023-07-16T08:05:27;4.82;;;2.70;;
40609;SDS011;26316;55.976;37.140;2023-07-16T08:07:52;4.15;;;2.60;;
40609;SDS011;26316;55.976;37.140;2023-07-16T08:10:19;3.78;;;2.53;;
40609;SDS011;26316;55.976;37.140;2023-07-16T08:12:45;2.75;;;2.55;;
40609;SDS011;26316;55.976;37.140;2023-07-16T08:15:10;4.13;;;2.40;;
40609;SDS011;26316;55.976;37.140;2023-07-16T08:17:43;4.13;;;2.72;;
40609;SDS011;26316;55.976;37.140;2023-07-16T08:20:10;2.78;;;2.58;;
40609;SDS011;26316;55.976;37.140;2023-07-16T08:22:37;3.60;;;3.08;;
40609;SDS011;26316;55.976;37.140;2023-07-16T08:25:03;3.42;;;3.00;;
40609;SDS011;26316;55.976;37.140;2023-07-16T08:27:30;3.03;;;2.67;;
40609;SDS011;26316;55.976;37.140;2023-07-16T08:29:56;4.30;;;2.88;;
40609;SDS011;26316;55.976;37.140;2023-07-16T08:32:22;6.15;;;3.33;;
40609;SDS011;26316;55.976;37.140;2023-07-16T08:34:48;7.70;;;3.00;;
40609;SDS011;26316;55.976;37.140;2023-07-16T08:37:14;5.93;;;2.95;;
40609;SDS011;26316;55.976;37.140;2023-07-16T08:39:40;6.45;;;3.35;;
40609;SDS011;26316;55.976;37.140;2023-07-16T08:42:06;3.30;;;3.10;;
40609;SDS011;26316;55.976;37.140;2023-07-16T08:44:31;3.35;;;3.05;;
40609;SDS011;26316;55.976;37.140;2023-07-16T08:46:58;3.15;;;2.92;;
40609;SDS011;26316;55.976;37.140;2023-07-16T08:49:23;3.33;;;2.67;;
40609;SDS011;26316;55.976;37.140;2023-07-16T08:51:50;5.00;;;2.83;;
40609;SDS011;26316;55.976;37.140;2023-07-16T08:54:17;2.75;;;2.55;;
40609;SDS011;26316;55.976;37.140;2023-07-16T08:56:44;5.75;;;2.70;;
40609;SDS011;26316;55.976;37.140;2023-07-16T08:59:10;4.15;;;2.58;;
40609;SDS011;26316;55.976;37.140;2023-07-16T09:01:38;6.47;;;3.22;;
40609;SDS011;26316;55.976;37.140;2023-07-16T09:04:04;2.67;;;2.47;;
40609;SDS011;26316;55.976;37.140;2023-07-16T09:06:30;2.92;;;2.58;;
40609;SDS011;26316;55.976;37.140;2023-07-16T09:08:55;2.67;;;2.47;;
40609;SDS011;26316;55.976;37.140;2023-07-16T09:11:21;2.38;;;2.13;;
40609;SDS011;26316;55.976;37.140;2023-07-16T09:13:48;3.33;;;2.38;;
40609;SDS011;26316;55.976;37.140;2023-07-16T09:16:14;3.88;;;2.50;;
40609;SDS011;26316;55.976;37.140;2023-07-16T09:18:43;6.80;;;2.45;;
40609;SDS011;26316;55.976;37.140;2023-07-16T09:21:09;2.70;;;2.15;;
40609;SDS011;26316;55.976;37.140;2023-07-16T09:23:35;4.22;;;2.00;;
40609;SDS011;26316;55.976;37.140;2023-07-16T09:26:02;2.40;;;2.20;;
40609;SDS011;26316;55.976;37.140;2023-07-16T09:28:30;3.28;;;2.10;;
40609;SDS011;26316;55.976;37.140;2023-07-16T09:31:02;2.88;;;2.35;;
40609;SDS011;26316;55.976;37.140;2023-07-16T09:33:31;3.58;;;2.30;;
40609;SDS011;26316;55.976;37.140;2023-07-16T09:35:56;2.60;;;2.25;;
40609;SDS011;26316;55.976;37.140;2023-07-16T09:38:22;5.32;;;2.58;;
40609;SDS011;26316;55.976;37.140;2023-07-16T09:40:50;2.53;;;2.30;;
40609;SDS011;26316;55.976;37.140;2023-07-16T09:43:17;3.00;;;2.80;;
40609;SDS011;26316;55.976;37.140;2023-07-16T09:45:43;3.10;;;2.80;;
40609;SDS011;26316;55.976;37.140;2023-07-16T09:48:09;3.25;;;2.95;;
40609;SDS011;26316;55.976;37.140;2023-07-16T09:50:36;5.07;;;2.78;;
40609;SDS011;26316;55.976;37.140;2023-07-16T09:53:05;4.00;;;3.05;;
40609;SDS011;26316;55.976;37.140;2023-07-16T09:55:33;4.80;;;2.85;;
40609;SDS011;26316;55.976;37.140;2023-07-16T09:58:02;3.42;;;2.38;;
40609;SDS011;26316;55.976;37.140;2023-07-16T10:00:31;5.85;;;2.90;;
40609;SDS011;26316;55.976;37.140;2023-07-16T10:02:58;5.35;;;2.45;;
40609;SDS011;26316;55.976;37.140;2023-07-16T10:05:24;7.30;;;2.70;;
40609;SDS011;26316;55.976;37.140;2023-07-16T10:07:53;5.78;;;2.65;;
40609;SDS011;26316;55.976;37.140;2023-07-16T10:13:06;3.00;;;2.70;;
40609;SDS011;26316;55.976;37.140;2023-07-16T10:15:33;2.83;;;2.63;;
40609;SDS011;26316;55.976;37.140;2023-07-16T10:17:59;6.25;;;2.60;;
40609;SDS011;26316;55.976;37.140;2023-07-16T10:20:29;5.78;;;2.63;;
40609;SDS011;26316;55.976;37.140;2023-07-16T10:22:56;4.50;;;3.95;;
40609;SDS011;26316;55.976;37.140;2023-07-16T10:25:26;3.83;;;3.40;;
40609;SDS011;26316;55.976;37.140;2023-07-16T10:27:52;4.07;;;2.72;;
40609;SDS011;26316;55.976;37.140;2023-07-16T10:30:19;2.65;;;2.45;;
40609;SDS011;26316;55.976;37.140;2023-07-16T10:32:45;3.33;;;3.00;;
40609;SDS011;26316;55.976;37.140;2023-07-16T10:35:12;4.32;;;2.50;;
40609;SDS011;26316;55.976;37.140;2023-07-16T10:37:39;6.20;;;2.30;;
40609;SDS011;26316;55.976;37.140;2023-07-16T10:40:10;2.50;;;2.30;;
40609;SDS011;26316;55.976;37.140;2023-07-16T10:42:36;3.03;;;2.00;;
40609;SDS011;26316;55.976;37.140;2023-07-16T10:45:05;3.10;;;2.35;;
40609;SDS011;26316;55.976;37.140;2023-07-16T10:47:34;1.70;;;1.60;;
40609;SDS011;26316;55.976;37.140;2023-07-16T10:50:05;3.65;;;1.90;;
40609;SDS011;26316;55.976;37.140;2023-07-16T10:52:33;3.85;;;2.05;;
40609;SDS011;26316;55.976;37.140;2023-07-16T10:54:59;2.17;;;1.73;;
40609;SDS011;26316;55.976;37.140;2023-07-16T10:57:24;2.88;;;2.67;;
40609;SDS011;26316;55.976;37.140;2023-07-16T10:59:51;3.10;;;2.78;;
40609;SDS011;26316;55.976;37.140;2023-07-16T11:02:17;4.03;;;2.67;;
40609;SDS011;26316;55.976;37.140;2023-07-16T11:04:44;2.10;;;2.00;;
40609;SDS011;26316;55.976;37.140;2023-07-16T11:07:11;2.40;;;2.20;;
40609;SDS011;26316;55.976;37.140;2023-07-16T11:12:18;2.53;;;2.00;;
40609;SDS011;26316;55.976;37.140;2023-07-16T11:14:46;2.47;;;1.70;;
40609;SDS011;26316;55.976;37.140;2023-07-16T11:17:13;8.10;;;2.55;;
40609;SDS011;26316;55.976;37.140;2023-07-16T11:19:39;8.45;;;1.92;;
40609;SDS011;26316;55.976;37.140;2023-07-16T11:22:08;4.90;;;1.87;;
40609;SDS011;26316;55.976;37.140;2023-07-16T11:29:48;3.15;;;2.20;;
40609;SDS011;26316;55.976;37.140;2023-07-16T11:35:15;2.53;;;1.90;;
40609;SDS011;26316;55.976;37.140;2023-07-16T11:37:43;2.65;;;2.05;;
40609;SDS011;26316;55.976;37.140;2023-07-16T11:40:09;3.30;;;1.80;;
40609;SDS011;26316;55.976;37.140;2023-07-16T11:42:37;2.30;;;1.98;;
40609;SDS011;26316;55.976;37.140;2023-07-16T11:45:04;3.80;;;2.50;;
40609;SDS011;26316;55.976;37.140;2023-07-16T11:47:34;2.67;;;2.47;;
40609;SDS011;26316;55.976;37.140;2023-07-16T11:50:00;2.42;;;2.22;;
40609;SDS011;26316;55.976;37.140;2023-07-16T11:52:26;2.67;;;2.47;;
40609;SDS011;26316;55.976;37.140;2023-07-16T11:54:53;3.40;;;2.30;;
40609;SDS011;26316;55.976;37.140;2023-07-16T11:57:19;3.83;;;2.63;;
40609;SDS011;26316;55.976;37.140;2023-07-16T11:59:45;2.40;;;2.20;;
40609;SDS011;26316;55.976;37.140;2023-07-16T12:02:11;4.72;;;2.13;;
40609;SDS011;26316;55.976;37.140;2023-07-16T12:04:37;3.75;;;2.70;;
40609;SDS011;26316;55.976;37.140;2023-07-16T12:07:03;2.20;;;2.10;;
40609;SDS011;26316;55.976;37.140;2023-07-16T12:09:29;5.20;;;2.20;;
40609;SDS011;26316;55.976;37.140;2023-07-16T12:11:54;5.00;;;2.38;;
40609;SDS011;26316;55.976;37.140;2023-07-16T12:14:21;2.85;;;2.65;;
40609;SDS011;26316;55.976;37.140;2023-07-16T12:16:46;3.78;;;2.80;;
40609;SDS011;26316;55.976;37.140;2023-07-16T12:19:12;3.15;;;2.83;;
40609;SDS011;26316;55.976;37.140;2023-07-16T12:21:38;3.33;;;3.05;;
40609;SDS011;26316;55.976;37.140;2023-07-16T12:24:04;5.38;;;3.53;;
40609;SDS011;26316;55.976;37.140;2023-07-16T12:26:30;3.60;;;2.72;;
40609;SDS011;26316;55.976;37.140;2023-07-16T12:28:55;3.00;;;2.60;;
40609;SDS011;26316;55.976;37.140;2023-07-16T12:31:21;3.13;;;2.20;;
40609;SDS011;26316;55.976;37.140;2023-07-16T12:33:47;2.25;;;2.15;;
40609;SDS011;26316;55.976;37.140;2023-07-16T12:36:13;7.88;;;2.55;;
40609;SDS011;26316;55.976;37.140;2023-07-16T12:38:40;2.70;;;2.50;;
40609;SDS011;26316;55.976;37.140;2023-07-16T12:41:06;3.50;;;2.53;;
40609;SDS011;26316;55.976;37.140;2023-07-16T12:43:32;3.00;;;2.30;;
40609;SDS011;26316;55.976;37.140;2023-07-16T12:46:03;3.50;;;2.40;;
40609;SDS011;26316;55.976;37.140;2023-07-16T12:48:30;2.72;;;2.40;;
40609;SDS011;26316;55.976;37.140;2023-07-16T12:50:56;4.65;;;2.10;;
40609;SDS011;26316;55.976;37.140;2023-07-16T12:53:22;3.58;;;2.83;;
40609;SDS011;26316;55.976;37.140;2023-07-16T12:55:48;2.83;;;2.63;;
40609;SDS011;26316;55.976;37.140;2023-07-16T12:58:14;2.83;;;2.47;;
40609;SDS011;26316;55.976;37.140;2023-07-16T13:00:40;7.22;;;6.53;;
40609;SDS011;26316;55.976;37.140;2023-07-16T13:03:05;3.78;;;3.47;;
40609;SDS011;26316;55.976;37.140;2023-07-16T13:05:33;3.28;;;2.97;;
40609;SDS011;26316;55.976;37.140;2023-07-16T13:07:59;2.97;;;2.67;;
40609;SDS011;26316;55.976;37.140;2023-07-16T13:10:24;4.65;;;2.60;;
40609;SDS011;26316;55.976;37.140;2023-07-16T13:12:50;3.30;;;2.33;;
40609;SDS011;26316;55.976;37.140;2023-07-16T13:15:16;5.95;;;2.47;;
40609;SDS011;26316;55.976;37.140;2023-07-16T13:17:42;2.50;;;2.30;;
40609;SDS011;26316;55.976;37.140;2023-07-16T13:20:08;5.65;;;2.40;;
40609;SDS011;26316;55.976;37.140;2023-07-16T13:22:35;3.78;;;2.50;;
40609;SDS011;26316;55.976;37.140;2023-07-16T13:25:01;4.13;;;2.38;;
40609;SDS011;26316;55.976;37.140;2023-07-16T13:27:29;3.22;;;2.53;;
40609;SDS011;26316;55.976;37.140;2023-07-16T13:29:55;2.67;;;2.47;;
40609;SDS011;26316;55.976;37.140;2023-07-16T13:32:20;3.15;;;2.83;;
40609;SDS011;26316;55.976;37.140;2023-07-16T13:34:46;5.82;;;4.60;;
40609;SDS011;26316;55.976;37.140;2023-07-16T13:37:12;7.80;;;3.95;;
40609;SDS011;26316;55.976;37.140;2023-07-16T13:39:39;7.80;;;3.58;;
40609;SDS011;26316;55.976;37.140;2023-07-16T13:42:05;5.45;;;3.42;;
40609;SDS011;26316;55.976;37.140;2023-07-16T13:44:32;4.60;;;3.10;;
40609;SDS011;26316;55.976;37.140;2023-07-16T13:47:00;11.20;;;4.18;;
40609;SDS011;26316;55.976;37.140;2023-07-16T13:49:26;6.32;;;3.35;;
40609;SDS011;26316;55.976;37.140;2023-07-16T13:51:52;9.63;;;3.45;;
40609;SDS011;26316;55.976;37.140;2023-07-16T13:54:17;11.18;;;4.90;;
40609;SDS011;26316;55.976;37.140;2023-07-16T13:56:44;13.35;;;3.55;;
40609;SDS011;26316;55.976;37.140;2023-07-16T13:59:09;5.10;;;3.60;;
40609;SDS011;26316;55.976;37.140;2023-07-16T14:01:39;5.90;;;3.42;;
40609;SDS011;26316;55.976;37.140;2023-07-16T14:04:05;6.18;;;3.33;;
40609;SDS011;26316;55.976;37.140;2023-07-16T14:06:31;6.97;;;3.10;;
40609;SDS011;26316;55.976;37.140;2023-07-16T14:08:57;4.38;;;3.72;;
40609;SDS011;26316;55.976;37.140;2023-07-16T14:11:23;7.18;;;3.67;;
40609;SDS011;26316;55.976;37.140;2023-07-16T14:13:49;6.72;;;3.55;;
40609;SDS011;26316;55.976;37.140;2023-07-16T14:16:25;8.02;;;3.25;;
40609;SDS011;26316;55.976;37.140;2023-07-16T14:18:52;3.95;;;3.40;;
40609;SDS011;26316;55.976;37.140;2023-07-16T14:21:20;4.25;;;3.17;;
40609;SDS011;26316;55.976;37.140;2023-07-16T14:23:45;7.60;;;3.10;;
40609;SDS011;26316;55.976;37.140;2023-07-16T14:26:11;6.25;;;4.25;;
40609;SDS011;26316;55.976;37.140;2023-07-16T14:28:37;7.55;;;4.18;;
40609;SDS011;26316;55.976;37.140;2023-07-16T14:31:03;9.07;;;3.65;;
40609;SDS011;26316;55.976;37.140;2023-07-16T14:33:29;5.50;;;3.30;;
40609;SDS011;26316;55.976;37.140;2023-07-16T14:35:55;6.60;;;3.53;;
40609;SDS011;26316;55.976;37.140;2023-07-16T14:38:21;5.00;;;3.30;;
40609;SDS011;26316;55.976;37.140;2023-07-16T14:40:47;5.50;;;3.35;;
40609;SDS011;26316;55.976;37.140;2023-07-16T14:43:13;5.78;;;3.80;;
40609;SDS011;26316;55.976;37.140;2023-07-16T14:45:39;6.95;;;3.90;;
40609;SDS011;26316;55.976;37.140;2023-07-16T14:48:05;5.47;;;3.33;;